TimeCST,TemperatureF,Dew PointF,Humidity,Sea Level PressureIn,VisibilityMPH,Wind Direction,Wind SpeedMPH,Gust SpeedMPH,PrecipitationIn,Events,Conditions,WindDirDegrees,DateUTC
12:53 AM,50.0,50.0,100,29.80,4.0,South,8.1,-,N/A,,Clear,170,2012-12-09 06:53:00
1:44 AM,51.8,50.0,94,29.81,3.0,SSE,5.8,-,N/A,,Mostly Cloudy,150,2012-12-09 07:44:00
1:53 AM,52.0,51.1,97,29.80,3.0,SSE,3.5,-,N/A,,Mostly Cloudy,150,2012-12-09 07:53:00
2:24 AM,51.8,51.8,100,29.81,2.5,SE,5.8,-,N/A,,Overcast,140,2012-12-09 08:24:00
2:38 AM,51.8,51.8,100,29.81,1.5,SE,5.8,-,N/A,,Overcast,130,2012-12-09 08:38:00
2:51 AM,51.8,51.8,100,29.80,0.5,SE,4.6,-,N/A,Fog,Fog,130,2012-12-09 08:51:00
2:53 AM,51.1,51.1,100,29.79,0.5,SE,4.6,-,N/A,Fog,Fog,130,2012-12-09 08:53:00
3:02 AM,51.8,51.8,100,29.80,0.2,ESE,4.6,-,N/A,Fog,Fog,120,2012-12-09 09:02:00
3:53 AM,52.0,52.0,100,29.79,0.2,SE,5.8,-,0.02,Fog,Fog,140,2012-12-09 09:53:00
4:42 AM,51.8,51.8,100,29.79,0.2,SSE,4.6,-,0.03,Fog-Rain,Light Rain,160,2012-12-09 10:42:00
4:48 AM,53.6,53.6,100,29.80,0.5,Calm,Calm,-,0.03,Fog,Fog,0,2012-12-09 10:48:00
4:53 AM,53.1,53.1,100,29.78,0.8,South,4.6,-,0.03,,Overcast,170,2012-12-09 10:53:00
5:01 AM,53.6,53.6,100,29.79,1.0,SSE,5.8,-,N/A,,Overcast,150,2012-12-09 11:01:00
5:15 AM,53.6,53.6,100,29.78,0.5,SE,5.8,-,N/A,Fog,Fog,140,2012-12-09 11:15:00
5:30 AM,53.6,53.6,100,29.78,0.2,SE,3.5,-,N/A,Fog,Fog,130,2012-12-09 11:30:00
5:50 AM,53.6,51.8,94,29.78,0.2,SSE,5.8,-,N/A,Fog,Fog,150,2012-12-09 11:50:00
5:53 AM,53.1,52.0,96,29.77,0.2,SE,5.8,-,N/A,Fog,Fog,140,2012-12-09 11:53:00
6:32 AM,51.8,51.8,100,29.77,0.2,SE,6.9,-,0.00,Fog-Rain-Thunderstorm,Light Rain,130,2012-12-09 12:32:00
6:53 AM,53.1,52.0,96,29.79,0.2,NW,13.8,-,0.07,Fog-Rain-Thunderstorm,Heavy Thunderstorms and Rain,320,2012-12-09 12:53:00
6:58 AM,53.6,51.8,94,29.79,0.5,NNW,6.9,-,0.10,Fog-Rain-Thunderstorm,Heavy Thunderstorms and Rain,330,2012-12-09 12:58:00
7:00 AM,53.6,51.8,94,29.80,0.8,NW,6.9,-,0.11,Rain-Thunderstorm,Heavy Thunderstorms and Rain,310,2012-12-09 13:00:00
7:03 AM,53.6,53.6,100,29.80,1.5,North,3.5,-,0.12,Rain-Thunderstorm,Rain,350,2012-12-09 13:03:00
7:05 AM,53.6,53.6,100,29.80,2.0,Calm,Calm,-,0.13,Rain-Thunderstorm,Heavy Rain,0,2012-12-09 13:05:00
7:14 AM,53.6,53.6,100,29.78,2.5,East,5.8,-,0.18,Rain,Rain,90,2012-12-09 13:14:00
7:22 AM,53.6,53.6,100,29.78,4.0,ESE,3.5,-,0.18,Rain,Light Rain,120,2012-12-09 13:22:00
7:53 AM,54.0,54.0,100,29.77,5.0,SSE,3.5,-,0.18,,Mostly Cloudy,150,2012-12-09 13:53:00
8:08 AM,53.6,53.6,100,29.78,6.0,North,4.6,-,N/A,,Overcast,350,2012-12-09 14:08:00
8:53 AM,55.0,55.0,100,29.77,7.0,SE,3.5,-,N/A,,Mostly Cloudy,140,2012-12-09 14:53:00
9:16 AM,55.4,55.4,100,29.80,5.0,NNW,4.6,-,N/A,,Overcast,330,2012-12-09 15:16:00
9:51 AM,55.4,55.4,100,29.79,5.0,Calm,Calm,-,N/A,,Overcast,0,2012-12-09 15:51:00
9:52 AM,55.9,55.0,97,29.78,5.0,Calm,Calm,-,N/A,,Overcast,0,2012-12-09 15:52:00
10:38 AM,57.2,55.4,94,29.80,4.0,Calm,Calm,-,0.02,Rain,Light Rain,0,2012-12-09 16:38:00
10:53 AM,57.0,55.9,96,29.78,6.0,WNW,4.6,-,0.02,,Overcast,300,2012-12-09 16:53:00
11:13 AM,57.2,55.4,94,29.80,8.0,NW,3.5,-,N/A,,Overcast,320,2012-12-09 17:13:00
11:44 AM,55.4,55.4,100,29.79,6.0,NW,10.4,-,N/A,,Overcast,310,2012-12-09 17:44:00
11:53 AM,55.9,54.0,93,29.78,5.0,NW,10.4,-,N/A,,Overcast,320,2012-12-09 17:53:00
12:00 PM,55.4,53.6,94,29.79,4.0,NW,11.5,-,N/A,,Overcast,320,2012-12-09 18:00:00
12:11 PM,55.4,53.6,94,29.79,1.8,NW,9.2,-,N/A,,Overcast,310,2012-12-09 18:11:00
12:19 PM,55.4,53.6,94,29.78,0.5,NW,10.4,-,N/A,Fog,Fog,310,2012-12-09 18:19:00
12:26 PM,53.6,53.6,100,29.78,0.2,NW,11.5,-,N/A,Fog,Fog,320,2012-12-09 18:26:00
12:49 PM,53.6,53.6,100,29.78,0.8,NNW,8.1,-,N/A,,Mist,330,2012-12-09 18:49:00
12:53 PM,53.1,53.1,100,29.78,2.5,NNW,8.1,-,N/A,,Overcast,340,2012-12-09 18:53:00
12:55 PM,53.6,53.6,100,29.79,3.0,NNW,5.8,-,N/A,,Overcast,340,2012-12-09 18:55:00
1:08 PM,53.6,51.8,94,29.78,5.0,NW,6.9,-,N/A,,Overcast,320,2012-12-09 19:08:00
1:18 PM,51.8,50.0,94,29.79,2.0,NW,11.5,-,N/A,,Overcast,310,2012-12-09 19:18:00
1:26 PM,51.8,50.0,94,29.79,1.8,NNW,8.1,18.4,N/A,,Overcast,330,2012-12-09 19:26:00
1:53 PM,50.0,48.0,93,29.78,3.0,NW,15.0,-,N/A,,Overcast,310,2012-12-09 19:53:00
2:02 PM,50.0,48.2,94,29.79,3.0,NW,11.5,-,N/A,,Overcast,320,2012-12-09 20:02:00
2:53 PM,48.0,46.0,93,29.81,4.0,NW,10.4,-,N/A,,Overcast,310,2012-12-09 20:53:00
3:53 PM,46.9,44.1,90,29.84,8.0,NW,11.5,20.7,N/A,,Overcast,320,2012-12-09 21:53:00
4:53 PM,46.0,43.0,89,29.85,9.0,WNW,10.4,-,N/A,,Overcast,300,2012-12-09 22:53:00
5:03 PM,46.4,42.8,87,29.86,8.0,WNW,11.5,19.6,N/A,,Overcast,300,2012-12-09 23:03:00
5:17 PM,46.4,42.8,87,29.86,6.0,WNW,8.1,17.3,N/A,,Overcast,300,2012-12-09 23:17:00
5:29 PM,46.4,42.8,87,29.87,6.0,WNW,11.5,17.3,N/A,,Overcast,300,2012-12-09 23:29:00
5:53 PM,46.0,42.1,86,29.88,9.0,NW,13.8,19.6,N/A,,Overcast,310,2012-12-09 23:53:00
6:25 PM,44.6,41.0,87,29.90,10.0,NW,10.4,-,N/A,,Overcast,310,2012-12-10 00:25:00
6:53 PM,45.0,41.0,86,29.89,10.0,NW,12.7,-,N/A,,Overcast,320,2012-12-10 00:53:00
7:11 PM,44.6,39.2,81,29.90,10.0,NW,11.5,-,N/A,,Overcast,320,2012-12-10 01:11:00
7:53 PM,45.0,39.0,80,29.91,10.0,NW,10.4,-,N/A,,Overcast,320,2012-12-10 01:53:00
8:50 PM,42.8,37.4,81,29.91,9.0,NW,15.0,20.7,N/A,,Overcast,320,2012-12-10 02:50:00
8:53 PM,43.0,37.9,82,29.92,8.0,NW,13.8,20.7,N/A,,Overcast,320,2012-12-10 02:53:00
9:37 PM,41.0,35.6,81,29.93,10.0,NW,9.2,-,N/A,,Overcast,320,2012-12-10 03:37:00
9:53 PM,41.0,35.1,79,29.93,10.0,NW,10.4,-,N/A,,Overcast,320,2012-12-10 03:53:00
10:53 PM,37.9,30.9,76,29.96,10.0,NW,12.7,-,N/A,,Overcast,320,2012-12-10 04:53:00
11:53 PM,33.1,25.0,72,29.96,10.0,NW,13.8,21.9,N/A,,Partly Cloudy,310,2012-12-10 05:53:00